sensor_id;sensor_type;location;lat;lon;timestamp;temperature;humidity
75134;HTU21D;64441;44.708;37.780;2022-10-26T00:00:51;14.58;72.60
75134;HTU21D;64441;44.708;37.780;2022-10-26T00:03:17;14.62;72.93
75134;HTU21D;64441;44.708;37.780;2022-10-26T00:05:43;14.66;72.94
75134;HTU21D;64441;44.708;37.780;2022-10-26T00:08:09;14.69;73.09
75134;HTU21D;64441;44.708;37.780;2022-10-26T00:10:36;14.70;73.27
75134;HTU21D;64441;44.708;37.780;2022-10-26T00:13:02;14.73;73.38
75134;HTU21D;64441;44.708;37.780;2022-10-26T00:15:29;14.77;73.38
75134;HTU21D;64441;44.708;37.780;2022-10-26T00:17:55;14.81;74.10
75134;HTU21D;64441;44.708;37.780;2022-10-26T00:20:21;14.82;73.89
75134;HTU21D;64441;44.708;37.780;2022-10-26T00:22:47;14.85;73.92
75134;HTU21D;64441;44.708;37.780;2022-10-26T00:25:13;14.87;74.21
75134;HTU21D;64441;44.708;37.780;2022-10-26T00:27:39;14.88;74.19
75134;HTU21D;64441;44.708;37.780;2022-10-26T00:30:05;14.92;74.44
75134;HTU21D;64441;44.708;37.780;2022-10-26T00:32:32;14.94;74.55
75134;HTU21D;64441;44.708;37.780;2022-10-26T00:34:58;14.96;74.89
75134;HTU21D;64441;44.708;37.780;2022-10-26T00:37:24;14.99;74.96
75134;HTU21D;64441;44.708;37.780;2022-10-26T00:39:50;15.03;75.65
75134;HTU21D;64441;44.708;37.780;2022-10-26T00:42:19;15.06;75.70
75134;HTU21D;64441;44.708;37.780;2022-10-26T00:49:46;15.08;76.32
75134;HTU21D;64441;44.708;37.780;2022-10-26T00:52:14;15.10;76.07
75134;HTU21D;64441;44.708;37.780;2022-10-26T00:54:42;15.11;76.00
75134;HTU21D;64441;44.708;37.780;2022-10-26T00:57:08;15.13;75.97
75134;HTU21D;64441;44.708;37.780;2022-10-26T00:59:35;15.14;76.09
75134;HTU21D;64441;44.708;37.780;2022-10-26T01:02:01;15.15;76.15
75134;HTU21D;64441;44.708;37.780;2022-10-26T01:04:27;15.16;76.13
75134;HTU21D;64441;44.708;37.780;2022-10-26T01:06:53;15.17;76.45
75134;HTU21D;64441;44.708;37.780;2022-10-26T01:09:19;15.19;76.56
75134;HTU21D;64441;44.708;37.780;2022-10-26T01:11:46;15.22;76.47
75134;HTU21D;64441;44.708;37.780;2022-10-26T01:14:12;15.24;76.41
75134;HTU21D;64441;44.708;37.780;2022-10-26T01:21:53;15.27;76.16
75134;HTU21D;64441;44.708;37.780;2022-10-26T01:29:37;15.29;75.75
75134;HTU21D;64441;44.708;37.780;2022-10-26T01:32:09;15.29;75.82
75134;HTU21D;64441;44.708;37.780;2022-10-26T01:34:40;15.29;75.86
75134;HTU21D;64441;44.708;37.780;2022-10-26T01:37:09;15.30;76.03
75134;HTU21D;64441;44.708;37.780;2022-10-26T01:39:38;15.30;76.17
75134;HTU21D;64441;44.708;37.780;2022-10-26T01:42:06;15.31;76.54
75134;HTU21D;64441;44.708;37.780;2022-10-26T01:44:35;15.32;77.05
75134;HTU21D;64441;44.708;37.780;2022-10-26T01:47:06;15.33;77.32
75134;HTU21D;64441;44.708;37.780;2022-10-26T01:49:34;15.34;77.09
75134;HTU21D;64441;44.708;37.780;2022-10-26T01:52:01;15.33;77.08
75134;HTU21D;64441;44.708;37.780;2022-10-26T01:54:26;15.31;77.09
75134;HTU21D;64441;44.708;37.780;2022-10-26T01:56:54;15.32;77.14
75134;HTU21D;64441;44.708;37.780;2022-10-26T02:07:00;15.33;77.37
75134;HTU21D;64441;44.708;37.780;2022-10-26T02:15:30;15.33;77.24
75134;HTU21D;64441;44.708;37.780;2022-10-26T02:17:59;15.36;77.45
75134;HTU21D;64441;44.708;37.780;2022-10-26T02:20:32;15.39;77.66
75134;HTU21D;64441;44.708;37.780;2022-10-26T02:23:00;15.43;77.53
75134;HTU21D;64441;44.708;37.780;2022-10-26T02:25:27;15.44;77.48
75134;HTU21D;64441;44.708;37.780;2022-10-26T02:27:58;15.47;77.46
75134;HTU21D;64441;44.708;37.780;2022-10-26T02:30:24;15.51;77.71
75134;HTU21D;64441;44.708;37.780;2022-10-26T02:32:52;15.51;78.00
75134;HTU21D;64441;44.708;37.780;2022-10-26T02:35:20;15.54;78.05
75134;HTU21D;64441;44.708;37.780;2022-10-26T02:37:47;15.57;78.21
75134;HTU21D;64441;44.708;37.780;2022-10-26T02:40:15;15.58;77.69
75134;HTU21D;64441;44.708;37.780;2022-10-26T02:42:44;15.61;77.67
75134;HTU21D;64441;44.708;37.780;2022-10-26T02:45:11;15.62;77.63
75134;HTU21D;64441;44.708;37.780;2022-10-26T02:47:38;15.66;77.29
75134;HTU21D;64441;44.708;37.780;2022-10-26T02:50:04;15.66;77.08
75134;HTU21D;64441;44.708;37.780;2022-10-26T02:55:17;15.68;76.93
75134;HTU21D;64441;44.708;37.780;2022-10-26T02:57:45;15.69;77.31
75134;HTU21D;64441;44.708;37.780;2022-10-26T03:00:15;15.70;76.89
75134;HTU21D;64441;44.708;37.780;2022-10-26T03:02:42;15.70;76.91
75134;HTU21D;64441;44.708;37.780;2022-10-26T03:05:11;15.71;77.08
75134;HTU21D;64441;44.708;37.780;2022-10-26T03:07:37;15.74;76.87
75134;HTU21D;64441;44.708;37.780;2022-10-26T03:10:03;15.75;76.72
75134;HTU21D;64441;44.708;37.780;2022-10-26T03:12:29;15.75;76.79
75134;HTU21D;64441;44.708;37.780;2022-10-26T03:14:56;15.77;77.14
75134;HTU21D;64441;44.708;37.780;2022-10-26T03:17:22;15.77;76.90
75134;HTU21D;64441;44.708;37.780;2022-10-26T03:19:48;15.77;76.92
75134;HTU21D;64441;44.708;37.780;2022-10-26T03:22:13;15.75;77.00
75134;HTU21D;64441;44.708;37.780;2022-10-26T03:24:39;15.76;76.95
75134;HTU21D;64441;44.708;37.780;2022-10-26T03:27:05;15.77;77.19
75134;HTU21D;64441;44.708;37.780;2022-10-26T03:29:31;15.77;77.54
75134;HTU21D;64441;44.708;37.780;2022-10-26T03:31:57;15.78;77.72
75134;HTU21D;64441;44.708;37.780;2022-10-26T03:34:23;15.82;77.34
75134;HTU21D;64441;44.708;37.780;2022-10-26T03:36:48;15.84;77.18
75134;HTU21D;64441;44.708;37.780;2022-10-26T03:39:14;15.86;77.27
75134;HTU21D;64441;44.708;37.780;2022-10-26T03:41:40;15.90;77.06
75134;HTU21D;64441;44.708;37.780;2022-10-26T03:44:06;15.91;77.08
75134;HTU21D;64441;44.708;37.780;2022-10-26T03:46:32;15.95;77.34
75134;HTU21D;64441;44.708;37.780;2022-10-26T03:48:58;15.97;77.66
75134;HTU21D;64441;44.708;37.780;2022-10-26T03:51:24;15.97;77.52
75134;HTU21D;64441;44.708;37.780;2022-10-26T03:53:49;15.97;77.48
75134;HTU21D;64441;44.708;37.780;2022-10-26T03:56:15;15.97;77.44
75134;HTU21D;64441;44.708;37.780;2022-10-26T03:58:41;15.95;77.89
75134;HTU21D;64441;44.708;37.780;2022-10-26T04:01:07;15.98;77.56
75134;HTU21D;64441;44.708;37.780;2022-10-26T04:03:33;16.00;77.54
75134;HTU21D;64441;44.708;37.780;2022-10-26T04:05:59;16.02;77.63
75134;HTU21D;64441;44.708;37.780;2022-10-26T04:08:25;16.01;77.67
75134;HTU21D;64441;44.708;37.780;2022-10-26T04:10:51;16.02;77.84
75134;HTU21D;64441;44.708;37.780;2022-10-26T04:13:17;16.02;78.01
75134;HTU21D;64441;44.708;37.780;2022-10-26T04:15:43;16.03;77.91
75134;HTU21D;64441;44.708;37.780;2022-10-26T04:18:09;16.04;77.72
75134;HTU21D;64441;44.708;37.780;2022-10-26T04:20:37;16.05;78.11
75134;HTU21D;64441;44.708;37.780;2022-10-26T04:23:04;16.07;78.09
75134;HTU21D;64441;44.708;37.780;2022-10-26T04:25:31;16.08;78.24
75134;HTU21D;64441;44.708;37.780;2022-10-26T04:27:57;16.11;78.13
75134;HTU21D;64441;44.708;37.780;2022-10-26T04:30:23;16.10;77.96
75134;HTU21D;64441;44.708;37.780;2022-10-26T04:32:49;16.11;77.67
75134;HTU21D;64441;44.708;37.780;2022-10-26T04:35:15;16.10;77.54
75134;HTU21D;64441;44.708;37.780;2022-10-26T04:37:41;16.10;77.51
75134;HTU21D;64441;44.708;37.780;2022-10-26T04:40:07;16.12;77.49
75134;HTU21D;64441;44.708;37.780;2022-10-26T04:42:43;16.14;77.51
75134;HTU21D;64441;44.708;37.780;2022-10-26T04:45:10;16.16;77.40
75134;HTU21D;64441;44.708;37.780;2022-10-26T04:47:36;16.20;77.27
75134;HTU21D;64441;44.708;37.780;2022-10-26T04:50:02;16.24;77.18
75134;HTU21D;64441;44.708;37.780;2022-10-26T04:52:28;16.30;77.10
75134;HTU21D;64441;44.708;37.780;2022-10-26T04:54:54;16.35;76.96
75134;HTU21D;64441;44.708;37.780;2022-10-26T04:57:20;16.43;76.86
75134;HTU21D;64441;44.708;37.780;2022-10-26T04:59:46;16.48;76.73
75134;HTU21D;64441;44.708;37.780;2022-10-26T05:02:11;16.56;76.53
75134;HTU21D;64441;44.708;37.780;2022-10-26T05:04:37;16.60;76.42
75134;HTU21D;64441;44.708;37.780;2022-10-26T05:07:03;16.64;76.28
75134;HTU21D;64441;44.708;37.780;2022-10-26T05:09:29;16.67;76.16
75134;HTU21D;64441;44.708;37.780;2022-10-26T05:11:55;16.70;76.12
75134;HTU21D;64441;44.708;37.780;2022-10-26T05:14:21;16.73;75.99
75134;HTU21D;64441;44.708;37.780;2022-10-26T05:16:49;16.75;75.92
75134;HTU21D;64441;44.708;37.780;2022-10-26T05:19:15;16.80;75.76
75134;HTU21D;64441;44.708;37.780;2022-10-26T05:21:41;16.84;75.60
75134;HTU21D;64441;44.708;37.780;2022-10-26T05:24:07;16.86;75.63
75134;HTU21D;64441;44.708;37.780;2022-10-26T05:26:32;16.92;75.65
75134;HTU21D;64441;44.708;37.780;2022-10-26T05:28:58;16.99;75.44
75134;HTU21D;64441;44.708;37.780;2022-10-26T05:31:24;17.15;75.44
75134;HTU21D;64441;44.708;37.780;2022-10-26T05:33:50;17.26;74.94
75134;HTU21D;64441;44.708;37.780;2022-10-26T05:36:17;17.34;74.46
75134;HTU21D;64441;44.708;37.780;2022-10-26T05:38:43;17.38;74.44
75134;HTU21D;64441;44.708;37.780;2022-10-26T05:41:09;17.41;74.50
75134;HTU21D;64441;44.708;37.780;2022-10-26T05:43:35;17.48;74.41
75134;HTU21D;64441;44.708;37.780;2022-10-26T05:46:01;17.50;74.33
75134;HTU21D;64441;44.708;37.780;2022-10-26T05:48:27;17.55;74.22
75134;HTU21D;64441;44.708;37.780;2022-10-26T05:50:53;17.61;74.25
75134;HTU21D;64441;44.708;37.780;2022-10-26T05:53:19;17.68;74.28
75134;HTU21D;64441;44.708;37.780;2022-10-26T05:55:45;17.76;74.14
75134;HTU21D;64441;44.708;37.780;2022-10-26T05:58:12;17.82;73.99
75134;HTU21D;64441;44.708;37.780;2022-10-26T06:00:57;17.89;73.81
75134;HTU21D;64441;44.708;37.780;2022-10-26T06:03:43;17.96;73.80
75134;HTU21D;64441;44.708;37.780;2022-10-26T06:06:10;18.07;73.73
75134;HTU21D;64441;44.708;37.780;2022-10-26T06:08:37;18.15;73.73
75134;HTU21D;64441;44.708;37.780;2022-10-26T06:11:03;18.26;73.58
75134;HTU21D;64441;44.708;37.780;2022-10-26T06:13:31;18.36;73.10
75134;HTU21D;64441;44.708;37.780;2022-10-26T06:16:10;18.42;72.87
75134;HTU21D;64441;44.708;37.780;2022-10-26T06:18:46;18.44;72.35
75134;HTU21D;64441;44.708;37.780;2022-10-26T06:26:45;18.44;72.27
75134;HTU21D;64441;44.708;37.780;2022-10-26T06:31:42;18.46;72.51
75134;HTU21D;64441;44.708;37.780;2022-10-26T06:34:11;18.47;72.52
75134;HTU21D;64441;44.708;37.780;2022-10-26T06:36:39;18.48;72.16
75134;HTU21D;64441;44.708;37.780;2022-10-26T06:39:06;18.46;72.08
75134;HTU21D;64441;44.708;37.780;2022-10-26T06:41:34;18.46;72.01
75134;HTU21D;64441;44.708;37.780;2022-10-26T06:44:01;18.48;72.10
75134;HTU21D;64441;44.708;37.780;2022-10-26T06:46:45;18.49;72.22
75134;HTU21D;64441;44.708;37.780;2022-10-26T06:51:42;18.55;71.87
75134;HTU21D;64441;44.708;37.780;2022-10-26T06:56:58;18.63;71.85
75134;HTU21D;64441;44.708;37.780;2022-10-26T06:59:28;18.67;71.69
75134;HTU21D;64441;44.708;37.780;2022-10-26T07:01:55;18.70;70.85
75134;HTU21D;64441;44.708;37.780;2022-10-26T07:04:21;18.70;71.31
75134;HTU21D;64441;44.708;37.780;2022-10-26T07:06:47;18.73;71.16
75134;HTU21D;64441;44.708;37.780;2022-10-26T07:09:13;18.77;71.23
75134;HTU21D;64441;44.708;37.780;2022-10-26T07:11:39;18.80;71.03
75134;HTU21D;64441;44.708;37.780;2022-10-26T07:14:05;18.82;71.10
75134;HTU21D;64441;44.708;37.780;2022-10-26T07:16:31;18.86;70.85
75134;HTU21D;64441;44.708;37.780;2022-10-26T07:18:57;18.89;70.81
75134;HTU21D;64441;44.708;37.780;2022-10-26T07:21:23;18.93;71.14
75134;HTU21D;64441;44.708;37.780;2022-10-26T07:23:49;18.98;70.82
75134;HTU21D;64441;44.708;37.780;2022-10-26T07:26:15;19.01;70.62
75134;HTU21D;64441;44.708;37.780;2022-10-26T07:28:41;19.02;70.47
75134;HTU21D;64441;44.708;37.780;2022-10-26T07:31:08;19.03;70.52
75134;HTU21D;64441;44.708;37.780;2022-10-26T07:33:34;19.07;70.00
75134;HTU21D;64441;44.708;37.780;2022-10-26T07:36:00;19.11;70.23
75134;HTU21D;64441;44.708;37.780;2022-10-26T07:38:26;19.12;70.13
75134;HTU21D;64441;44.708;37.780;2022-10-26T07:40:52;19.16;70.16
75134;HTU21D;64441;44.708;37.780;2022-10-26T07:43:18;19.18;70.09
75134;HTU21D;64441;44.708;37.780;2022-10-26T07:45:47;19.22;69.98
75134;HTU21D;64441;44.708;37.780;2022-10-26T07:48:13;19.26;70.03
75134;HTU21D;64441;44.708;37.780;2022-10-26T07:50:39;19.30;69.74
75134;HTU21D;64441;44.708;37.780;2022-10-26T07:53:05;19.33;69.73
75134;HTU21D;64441;44.708;37.780;2022-10-26T07:55:31;19.37;69.76
75134;HTU21D;64441;44.708;37.780;2022-10-26T07:57:57;19.41;69.90
75134;HTU21D;64441;44.708;37.780;2022-10-26T08:00:23;19.45;69.93
75134;HTU21D;64441;44.708;37.780;2022-10-26T08:02:50;19.51;69.50
75134;HTU21D;64441;44.708;37.780;2022-10-26T08:05:16;19.54;69.65
75134;HTU21D;64441;44.708;37.780;2022-10-26T08:07:42;19.59;69.35
75134;HTU21D;64441;44.708;37.780;2022-10-26T08:10:09;19.63;69.44
75134;HTU21D;64441;44.708;37.780;2022-10-26T08:12:35;19.70;69.20
75134;HTU21D;64441;44.708;37.780;2022-10-26T08:15:02;19.76;69.11
75134;HTU21D;64441;44.708;37.780;2022-10-26T08:17:28;19.77;68.52
75134;HTU21D;64441;44.708;37.780;2022-10-26T08:19:54;19.79;68.71
75134;HTU21D;64441;44.708;37.780;2022-10-26T08:22:20;19.80;68.80
75134;HTU21D;64441;44.708;37.780;2022-10-26T08:24:46;19.79;68.90
75134;HTU21D;64441;44.708;37.780;2022-10-26T08:27:13;19.77;68.82
75134;HTU21D;64441;44.708;37.780;2022-10-26T08:29:39;19.80;68.83
75134;HTU21D;64441;44.708;37.780;2022-10-26T08:32:05;19.77;68.55
75134;HTU21D;64441;44.708;37.780;2022-10-26T08:34:31;19.79;68.84
75134;HTU21D;64441;44.708;37.780;2022-10-26T08:36:57;19.77;68.59
75134;HTU21D;64441;44.708;37.780;2022-10-26T08:39:23;19.75;68.49
75134;HTU21D;64441;44.708;37.780;2022-10-26T08:41:53;19.72;68.58
75134;HTU21D;64441;44.708;37.780;2022-10-26T08:44:23;19.72;68.47
75134;HTU21D;64441;44.708;37.780;2022-10-26T08:46:56;19.68;68.59
75134;HTU21D;64441;44.708;37.780;2022-10-26T08:49:26;19.68;68.65
75134;HTU21D;64441;44.708;37.780;2022-10-26T08:51:56;19.67;68.51
75134;HTU21D;64441;44.708;37.780;2022-10-26T08:54:43;19.66;68.44
75134;HTU21D;64441;44.708;37.780;2022-10-26T08:59:48;19.72;68.71
75134;HTU21D;64441;44.708;37.780;2022-10-26T09:02:16;19.74;68.41
75134;HTU21D;64441;44.708;37.780;2022-10-26T09:04:42;19.74;68.02
75134;HTU21D;64441;44.708;37.780;2022-10-26T09:09:59;19.70;67.93
75134;HTU21D;64441;44.708;37.780;2022-10-26T09:18:23;19.68;68.26
75134;HTU21D;64441;44.708;37.780;2022-10-26T09:20:55;19.71;68.25
75134;HTU21D;64441;44.708;37.780;2022-10-26T09:23:38;19.73;67.38
75134;HTU21D;64441;44.708;37.780;2022-10-26T09:26:12;19.73;67.86
75134;HTU21D;64441;44.708;37.780;2022-10-26T09:28:38;19.69;67.36
75134;HTU21D;64441;44.708;37.780;2022-10-26T09:31:09;19.65;67.48
75134;HTU21D;64441;44.708;37.780;2022-10-26T09:33:38;19.60;67.73
75134;HTU21D;64441;44.708;37.780;2022-10-26T09:36:05;19.63;67.91
75134;HTU21D;64441;44.708;37.780;2022-10-26T09:38:34;19.69;68.02
75134;HTU21D;64441;44.708;37.780;2022-10-26T09:46:02;19.72;67.66
75134;HTU21D;64441;44.708;37.780;2022-10-26T09:48:41;19.72;67.83
75134;HTU21D;64441;44.708;37.780;2022-10-26T09:51:11;19.72;67.75
75134;HTU21D;64441;44.708;37.780;2022-10-26T09:53:36;19.71;67.36
75134;HTU21D;64441;44.708;37.780;2022-10-26T09:56:09;19.66;67.49
75134;HTU21D;64441;44.708;37.780;2022-10-26T09:58:39;19.60;67.55
75134;HTU21D;64441;44.708;37.780;2022-10-26T10:01:06;19.58;67.50
75134;HTU21D;64441;44.708;37.780;2022-10-26T10:03:32;19.55;67.61
75134;HTU21D;64441;44.708;37.780;2022-10-26T10:06:14;19.52;67.73
75134;HTU21D;64441;44.708;37.780;2022-10-26T10:08:43;19.48;67.69
75134;HTU21D;64441;44.708;37.780;2022-10-26T10:11:11;19.45;67.76
75134;HTU21D;64441;44.708;37.780;2022-10-26T10:13:38;19.46;67.89
75134;HTU21D;64441;44.708;37.780;2022-10-26T10:18:37;19.52;67.98
75134;HTU21D;64441;44.708;37.780;2022-10-26T10:21:04;19.56;67.97
75134;HTU21D;64441;44.708;37.780;2022-10-26T10:23:31;19.61;67.93
75134;HTU21D;64441;44.708;37.780;2022-10-26T10:25:58;19.63;67.78
75134;HTU21D;64441;44.708;37.780;2022-10-26T10:28:25;19.63;67.72
75134;HTU21D;64441;44.708;37.780;2022-10-26T10:30:58;19.62;67.81
75134;HTU21D;64441;44.708;37.780;2022-10-26T10:33:31;19.65;67.79
75134;HTU21D;64441;44.708;37.780;2022-10-26T10:35:58;19.65;67.76
75134;HTU21D;64441;44.708;37.780;2022-10-26T10:38:25;19.62;67.72
75134;HTU21D;64441;44.708;37.780;2022-10-26T10:40:52;19.58;67.67
75134;HTU21D;64441;44.708;37.780;2022-10-26T10:43:19;19.55;67.83
75134;HTU21D;64441;44.708;37.780;2022-10-26T10:45:46;19.53;67.92
75134;HTU21D;64441;44.708;37.780;2022-10-26T10:48:14;19.55;67.98
75134;HTU21D;64441;44.708;37.780;2022-10-26T10:50:51;19.58;68.01
75134;HTU21D;64441;44.708;37.780;2022-10-26T10:53:18;19.61;68.06
75134;HTU21D;64441;44.708;37.780;2022-10-26T10:58:48;19.71;68.06
75134;HTU21D;64441;44.708;37.780;2022-10-26T11:01:18;19.74;68.00
75134;HTU21D;64441;44.708;37.780;2022-10-26T11:03:48;19.82;68.00
75134;HTU21D;64441;44.708;37.780;2022-10-26T11:06:24;19.86;67.83
75134;HTU21D;64441;44.708;37.780;2022-10-26T11:09:27;19.90;67.73
75134;HTU21D;64441;44.708;37.780;2022-10-26T11:11:53;19.98;67.72
75134;HTU21D;64441;44.708;37.780;2022-10-26T11:14:24;20.02;67.62
75134;HTU21D;64441;44.708;37.780;2022-10-26T11:17:08;20.06;67.43
75134;HTU21D;64441;44.708;37.780;2022-10-26T11:22:04;20.10;67.55
75134;HTU21D;64441;44.708;37.780;2022-10-26T11:24:33;20.12;67.43
75134;HTU21D;64441;44.708;37.780;2022-10-26T11:27:04;20.15;67.28
75134;HTU21D;64441;44.708;37.780;2022-10-26T11:29:42;20.13;67.27
75134;HTU21D;64441;44.708;37.780;2022-10-26T11:32:16;20.10;66.88
75134;HTU21D;64441;44.708;37.780;2022-10-26T11:37:33;20.02;66.81
75134;HTU21D;64441;44.708;37.780;2022-10-26T11:40:04;19.99;66.72
75134;HTU21D;64441;44.708;37.780;2022-10-26T11:45:08;19.91;66.81
75134;HTU21D;64441;44.708;37.780;2022-10-26T11:47:36;19.91;66.75
75134;HTU21D;64441;44.708;37.780;2022-10-26T11:50:16;19.89;66.76
75134;HTU21D;64441;44.708;37.780;2022-10-26T11:53:16;19.89;66.57
75134;HTU21D;64441;44.708;37.780;2022-10-26T11:55:45;19.86;66.65
75134;HTU21D;64441;44.708;37.780;2022-10-26T11:58:12;19.86;66.68
75134;HTU21D;64441;44.708;37.780;2022-10-26T12:03:35;19.84;66.69
75134;HTU21D;64441;44.708;37.780;2022-10-26T12:06:02;19.83;66.63
75134;HTU21D;64441;44.708;37.780;2022-10-26T12:08:34;19.82;66.72
75134;HTU21D;64441;44.708;37.780;2022-10-26T12:11:06;19.81;66.86
75134;HTU21D;64441;44.708;37.780;2022-10-26T12:13:39;19.80;66.84
75134;HTU21D;64441;44.708;37.780;2022-10-26T12:18:47;19.75;66.98
75134;HTU21D;64441;44.708;37.780;2022-10-26T12:21:15;19.72;67.03
75134;HTU21D;64441;44.708;37.780;2022-10-26T12:24:00;19.70;67.06
75134;HTU21D;64441;44.708;37.780;2022-10-26T12:26:36;19.66;66.85
75134;HTU21D;64441;44.708;37.780;2022-10-26T12:33:57;19.52;67.30
75134;HTU21D;64441;44.708;37.780;2022-10-26T12:39:25;19.53;67.40
75134;HTU21D;64441;44.708;37.780;2022-10-26T12:42:26;19.54;67.37
75134;HTU21D;64441;44.708;37.780;2022-10-26T12:57:33;19.50;67.39
75134;HTU21D;64441;44.708;37.780;2022-10-26T13:00:03;19.45;67.42
75134;HTU21D;64441;44.708;37.780;2022-10-26T13:07:43;19.35;67.54
75134;HTU21D;64441;44.708;37.780;2022-10-26T13:12:50;19.29;67.65
75134;HTU21D;64441;44.708;37.780;2022-10-26T13:17:53;19.25;67.77
75134;HTU21D;64441;44.708;37.780;2022-10-26T13:20:20;19.24;67.78
75134;HTU21D;64441;44.708;37.780;2022-10-26T13:22:46;19.24;67.78
75134;HTU21D;64441;44.708;37.780;2022-10-26T13:25:22;19.22;67.82
75134;HTU21D;64441;44.708;37.780;2022-10-26T13:27:59;19.22;67.88
75134;HTU21D;64441;44.708;37.780;2022-10-26T13:32:58;19.21;67.90
75134;HTU21D;64441;44.708;37.780;2022-10-26T13:35:24;19.20;67.86
75134;HTU21D;64441;44.708;37.780;2022-10-26T13:37:52;19.17;67.93
75134;HTU21D;64441;44.708;37.780;2022-10-26T13:40:27;19.15;67.92
75134;HTU21D;64441;44.708;37.780;2022-10-26T13:42:57;19.14;67.94
75134;HTU21D;64441;44.708;37.780;2022-10-26T13:45:27;19.12;68.17
75134;HTU21D;64441;44.708;37.780;2022-10-26T13:48:02;19.15;68.26
75134;HTU21D;64441;44.708;37.780;2022-10-26T13:50:39;19.17;68.33
75134;HTU21D;64441;44.708;37.780;2022-10-26T13:53:06;19.21;68.36
75134;HTU21D;64441;44.708;37.780;2022-10-26T13:58:33;19.23;68.21
75134;HTU21D;64441;44.708;37.780;2022-10-26T14:03:35;19.08;68.29
75134;HTU21D;64441;44.708;37.780;2022-10-26T14:06:12;19.07;68.47
75134;HTU21D;64441;44.708;37.780;2022-10-26T14:08:40;19.08;68.52
75134;HTU21D;64441;44.708;37.780;2022-10-26T14:11:07;19.08;68.73
75134;HTU21D;64441;44.708;37.780;2022-10-26T14:13:35;19.09;68.92
75134;HTU21D;64441;44.708;37.780;2022-10-26T14:16:01;18.99;68.70
75134;HTU21D;64441;44.708;37.780;2022-10-26T14:18:31;18.87;68.85
75134;HTU21D;64441;44.708;37.780;2022-10-26T14:21:05;18.74;68.68
75134;HTU21D;64441;44.708;37.780;2022-10-26T14:23:48;18.64;68.78
75134;HTU21D;64441;44.708;37.780;2022-10-26T14:28:55;18.51;69.16
75134;HTU21D;64441;44.708;37.780;2022-10-26T14:31:23;18.46;69.18
75134;HTU21D;64441;44.708;37.780;2022-10-26T14:33:49;18.42;69.29
75134;HTU21D;64441;44.708;37.780;2022-10-26T14:36:16;18.38;69.40
75134;HTU21D;64441;44.708;37.780;2022-10-26T14:38:43;18.35;69.42
75134;HTU21D;64441;44.708;37.780;2022-10-26T14:41:10;18.30;69.52
75134;HTU21D;64441;44.708;37.780;2022-10-26T14:43:36;18.28;69.60
75134;HTU21D;64441;44.708;37.780;2022-10-26T14:46:02;18.28;69.66
75134;HTU21D;64441;44.708;37.780;2022-10-26T14:48:32;18.25;69.81
75134;HTU21D;64441;44.708;37.780;2022-10-26T14:51:09;18.24;69.77
75134;HTU21D;64441;44.708;37.780;2022-10-26T14:53:39;18.22;69.85
75134;HTU21D;64441;44.708;37.780;2022-10-26T14:56:16;18.20;70.23
75134;HTU21D;64441;44.708;37.780;2022-10-26T14:58:43;18.21;70.26
75134;HTU21D;64441;44.708;37.780;2022-10-26T15:01:20;18.20;70.26
75134;HTU21D;64441;44.708;37.780;2022-10-26T15:03:59;18.19;70.35
75134;HTU21D;64441;44.708;37.780;2022-10-26T15:06:39;18.18;70.48
75134;HTU21D;64441;44.708;37.780;2022-10-26T15:09:06;18.15;70.47
75134;HTU21D;64441;44.708;37.780;2022-10-26T15:11:51;18.14;70.51
75134;HTU21D;64441;44.708;37.780;2022-10-26T15:14:17;18.14;70.65
75134;HTU21D;64441;44.708;37.780;2022-10-26T15:16:49;18.15;70.61
75134;HTU21D;64441;44.708;37.780;2022-10-26T15:19:16;18.15;70.64
75134;HTU21D;64441;44.708;37.780;2022-10-26T15:21:48;18.17;70.58
75134;HTU21D;64441;44.708;37.780;2022-10-26T15:26:59;18.18;70.54
75134;HTU21D;64441;44.708;37.780;2022-10-26T15:29:37;18.17;70.47
75134;HTU21D;64441;44.708;37.780;2022-10-26T15:32:03;18.17;70.42
75134;HTU21D;64441;44.708;37.780;2022-10-26T15:34:29;18.18;70.48
75134;HTU21D;64441;44.708;37.780;2022-10-26T15:36:55;18.18;70.48
75134;HTU21D;64441;44.708;37.780;2022-10-26T15:39:21;18.18;70.47
75134;HTU21D;64441;44.708;37.780;2022-10-26T15:41:47;18.17;70.54
75134;HTU21D;64441;44.708;37.780;2022-10-26T15:44:15;18.17;70.45
75134;HTU21D;64441;44.708;37.780;2022-10-26T15:46:42;18.17;70.41
75134;HTU21D;64441;44.708;37.780;2022-10-26T15:49:14;18.17;70.41
75134;HTU21D;64441;44.708;37.780;2022-10-26T15:51:41;18.14;70.39
75134;HTU21D;64441;44.708;37.780;2022-10-26T15:54:08;18.13;70.29
75134;HTU21D;64441;44.708;37.780;2022-10-26T15:56:34;18.11;70.26
75134;HTU21D;64441;44.708;37.780;2022-10-26T15:59:00;18.06;70.23
75134;HTU21D;64441;44.708;37.780;2022-10-26T16:01:27;18.02;70.26
75134;HTU21D;64441;44.708;37.780;2022-10-26T16:03:53;17.96;70.20
75134;HTU21D;64441;44.708;37.780;2022-10-26T16:08:49;17.80;70.59
75134;HTU21D;64441;44.708;37.780;2022-10-26T16:11:15;17.72;70.74
75134;HTU21D;64441;44.708;37.780;2022-10-26T16:13:41;17.65;70.85
75134;HTU21D;64441;44.708;37.780;2022-10-26T16:16:14;17.58;71.00
75134;HTU21D;64441;44.708;37.780;2022-10-26T16:18:40;17.49;71.14
75134;HTU21D;64441;44.708;37.780;2022-10-26T16:21:14;17.43;71.26
75134;HTU21D;64441;44.708;37.780;2022-10-26T16:23:40;17.37;71.35
75134;HTU21D;64441;44.708;37.780;2022-10-26T16:26:06;17.31;71.63
75134;HTU21D;64441;44.708;37.780;2022-10-26T16:28:32;17.25;71.67
75134;HTU21D;64441;44.708;37.780;2022-10-26T16:31:00;17.21;72.01
75134;HTU21D;64441;44.708;37.780;2022-10-26T16:33:26;17.15;72.05
75134;HTU21D;64441;44.708;37.780;2022-10-26T16:35:56;17.13;72.07
75134;HTU21D;64441;44.708;37.780;2022-10-26T16:38:22;17.10;72.12
75134;HTU21D;64441;44.708;37.780;2022-10-26T16:40:48;17.06;72.21
75134;HTU21D;64441;44.708;37.780;2022-10-26T16:43:15;17.01;72.61
75134;HTU21D;64441;44.708;37.780;2022-10-26T16:45:41;16.99;72.60
75134;HTU21D;64441;44.708;37.780;2022-10-26T16:48:07;16.95;72.61
75134;HTU21D;64441;44.708;37.780;2022-10-26T16:50:38;16.96;72.62
75134;HTU21D;64441;44.708;37.780;2022-10-26T16:53:04;16.93;72.58
75134;HTU21D;64441;44.708;37.780;2022-10-26T16:55:30;16.93;72.61
75134;HTU21D;64441;44.708;37.780;2022-10-26T16:57:56;16.90;72.80
75134;HTU21D;64441;44.708;37.780;2022-10-26T17:00:22;16.90;73.23
75134;HTU21D;64441;44.708;37.780;2022-10-26T17:02:49;16.88;73.23
75134;HTU21D;64441;44.708;37.780;2022-10-26T17:05:15;16.84;73.27
75134;HTU21D;64441;44.708;37.780;2022-10-26T17:07:41;16.81;73.38
75134;HTU21D;64441;44.708;37.780;2022-10-26T17:10:07;16.82;73.38
75134;HTU21D;64441;44.708;37.780;2022-10-26T17:12:34;16.84;73.36
75134;HTU21D;64441;44.708;37.780;2022-10-26T17:14:59;16.85;73.35
75134;HTU21D;64441;44.708;37.780;2022-10-26T17:17:27;16.84;73.35